Time;durP1;ratioP1;P1;durP2;ratioP2;P2;SDS_P1;SDS_P2;PMS_P1;PMS_P2;Temp;Humidity;BMP_temperature;BMP_pressure;BME280_temperature;BME280_humidity;BME280_pressure;Samples;Min_cycle;Max_cycle;Signal;HPM_P1;HPM_P2
2021/05/11 00:02:15;;;;;;;2.78;2.58;;;;;;;;;;5002486;28;20218;-63
2021/05/11 00:04:41;;;;;;;3.05;2.85;;;;;;;;;;5009662;28;20237;-63
2021/05/11 00:07:07;;;;;;;3.50;3.20;;;;;;;;;;5008844;28;20199;-63
2021/05/11 00:09:33;;;;;;;3.60;3.30;;;;;;;;;;5003341;28;20188;-63
2021/05/11 00:11:59;;;;;;;2.97;2.78;;;;;;;;;;5005691;28;20684;-62
2021/05/11 00:14:25;;;;;;;3.13;2.92;;;;;;;;;;5005267;28;20242;-63
2021/05/11 00:16:51;;;;;;;2.70;2.50;;;;;;;;;;5003766;28;20184;-63
2021/05/11 00:19:17;;;;;;;3.38;3.17;;;;;;;;;;5007806;28;20314;-63
2021/05/11 00:21:44;;;;;;;3.70;3.50;;;;;;;;;;5008850;28;20216;-63
2021/05/11 00:24:10;;;;;;;3.67;3.38;;;;;;;;;;5005230;28;20234;-63
2021/05/11 00:26:38;;;;;;;4.55;4.25;;;;;;;;;;5003090;28;20334;-63
2021/05/11 00:29:04;;;;;;;5.05;4.70;;;;;;;;;;5005966;28;20185;-63
2021/05/11 00:31:31;;;;;;;5.82;5.38;;;;;;;;;;5004003;28;20511;-63
2021/05/11 00:33:57;;;;;;;5.53;5.13;;;;;;;;;;5006637;28;20254;-63
2021/05/11 00:36:23;;;;;;;6.03;5.63;;;;;;;;;;5013149;28;20593;-63
2021/05/11 00:38:49;;;;;;;5.90;5.40;;;;;;;;;;5012722;28;20189;-63
2021/05/11 00:41:15;;;;;;;6.82;6.22;;;;;;;;;;5000644;28;20296;-63
2021/05/11 00:43:42;;;;;;;7.90;7.30;;;;;;;;;;5005451;28;20605;-65
2021/05/11 00:46:08;;;;;;;6.68;6.18;;;;;;;;;;5003670;28;20498;-65
2021/05/11 00:48:34;;;;;;;7.10;6.60;;;;;;;;;;5005153;28;20569;-64
2021/05/11 00:51:00;;;;;;;7.28;6.65;;;;;;;;;;5002203;28;20196;-65
2021/05/11 00:53:26;;;;;;;7.68;7.00;;;;;;;;;;5020682;28;20193;-64
2021/05/11 00:55:52;;;;;;;7.68;7.07;;;;;;;;;;5007953;28;20205;-64
2021/05/11 00:58:18;;;;;;;8.27;7.57;;;;;;;;;;4997409;28;20993;-64
2021/05/11 01:00:44;;;;;;;9.77;8.88;;;;;;;;;;4999481;28;20185;-64
2021/05/11 01:03:10;;;;;;;10.55;9.65;;;;;;;;;;5004091;28;20212;-65
2021/05/11 01:05:36;;;;;;;9.43;8.68;;;;;;;;;;5005851;28;20229;-64
2021/05/11 01:08:02;;;;;;;10.23;9.40;;;;;;;;;;5010917;28;20271;-63
2021/05/11 01:10:29;;;;;;;9.27;8.35;;;;;;;;;;5005707;28;20274;-64
2021/05/11 01:12:55;;;;;;;9.55;8.75;;;;;;;;;;5004388;28;20291;-64
2021/05/11 01:15:21;;;;;;;10.07;9.27;;;;;;;;;;5001461;28;20188;-63
2021/05/11 01:17:54;;;;;;;9.38;8.57;;;;;;;;;;5005323;28;20182;-63
2021/05/11 01:20:32;;;;;;;9.05;8.25;;;;;;;;;;5010836;28;20667;-63
2021/05/11 01:25:31;;;;;;;9.77;9.00;;;;;;;;;;5004253;28;20181;-63
2021/05/11 01:49:38;;;;;;;12.40;11.30;;;;;;;;;;5000138;28;20525;-64
2021/05/11 01:55:07;;;;;;;12.40;11.30;;;;;;;;;;5005889;28;20180;-63
2021/05/11 02:25:00;;;;;;;10.68;9.77;;;;;;;;;;4988014;28;20727;-64
2021/05/11 02:27:26;;;;;;;11.07;10.05;;;;;;;;;;4985155;28;20267;-62
2021/05/11 02:29:52;;;;;;;12.45;11.15;;;;;;;;;;4986415;28;20248;-63
2021/05/11 02:32:19;;;;;;;10.20;9.30;;;;;;;;;;4986970;28;20220;-63
2021/05/11 02:34:45;;;;;;;11.35;10.43;;;;;;;;;;5000852;28;20197;-62
2021/05/11 02:37:11;;;;;;;11.27;10.27;;;;;;;;;;5005971;28;20184;-62
2021/05/11 02:39:38;;;;;;;12.57;11.30;;;;;;;;;;5007488;28;20649;-63
2021/05/11 02:42:05;;;;;;;11.52;10.43;;;;;;;;;;4998606;28;20227;-63
2021/05/11 02:44:38;;;;;;;11.95;10.93;;;;;;;;;;5006474;28;20181;-62
2021/05/11 02:47:04;;;;;;;11.45;10.35;;;;;;;;;;5011033;28;20209;-62
2021/05/11 02:49:30;;;;;;;11.57;10.57;;;;;;;;;;5012161;28;20558;-62
2021/05/11 02:51:56;;;;;;;11.32;10.23;;;;;;;;;;5010721;28;20197;-65
2021/05/11 02:54:22;;;;;;;11.52;10.40;;;;;;;;;;5001383;28;20367;-63
2021/05/11 02:56:48;;;;;;;11.98;10.82;;;;;;;;;;5006664;28;20197;-64
2021/05/11 02:59:14;;;;;;;11.20;10.23;;;;;;;;;;5001547;28;20204;-64
2021/05/11 03:01:40;;;;;;;12.05;10.38;;;;;;;;;;5000108;28;20708;-62
2021/05/11 03:04:06;;;;;;;10.93;9.82;;;;;;;;;;5001629;28;20194;-62
2021/05/11 03:06:32;;;;;;;11.25;9.98;;;;;;;;;;5008029;28;20184;-64
2021/05/11 03:08:58;;;;;;;10.63;9.63;;;;;;;;;;5000737;28;20190;-64
2021/05/11 03:11:24;;;;;;;10.52;9.35;;;;;;;;;;5002558;28;20292;-64
2021/05/11 03:13:50;;;;;;;10.23;9.15;;;;;;;;;;5003064;28;20192;-65
2021/05/11 03:16:16;;;;;;;10.32;9.40;;;;;;;;;;5003977;28;20185;-64
2021/05/11 03:18:46;;;;;;;10.45;9.45;;;;;;;;;;5002904;28;20184;-64
2021/05/11 03:21:12;;;;;;;10.57;9.60;;;;;;;;;;5000078;28;20228;-64
2021/05/11 03:23:38;;;;;;;10.13;8.98;;;;;;;;;;5008538;28;20699;-64
2021/05/11 03:26:04;;;;;;;10.48;9.48;;;;;;;;;;4999146;28;20181;-63
2021/05/11 03:28:30;;;;;;;10.30;9.30;;;;;;;;;;5004533;28;20572;-63
2021/05/11 03:30:56;;;;;;;10.77;9.68;;;;;;;;;;5003702;28;20567;-63
2021/05/11 03:33:22;;;;;;;10.60;9.60;;;;;;;;;;5005893;28;20182;-63
2021/05/11 03:35:48;;;;;;;10.25;9.23;;;;;;;;;;5009898;28;20203;-63
2021/05/11 03:38:14;;;;;;;9.82;8.88;;;;;;;;;;5007352;28;20185;-63
2021/05/11 03:40:40;;;;;;;9.55;8.63;;;;;;;;;;4998805;28;20188;-63
2021/05/11 03:43:13;;;;;;;11.57;10.40;;;;;;;;;;5004800;28;20213;-62
2021/05/11 03:45:47;;;;;;;10.70;9.63;;;;;;;;;;5003002;28;20224;-63
2021/05/11 03:48:13;;;;;;;11.82;10.63;;;;;;;;;;5007008;28;20216;-63
2021/05/11 03:50:39;;;;;;;11.10;10.00;;;;;;;;;;5002839;28;20250;-63
2021/05/11 03:53:05;;;;;;;10.13;9.13;;;;;;;;;;5004172;28;20216;-63
2021/05/11 03:55:31;;;;;;;11.23;9.88;;;;;;;;;;5002140;28;20182;-65
2021/05/11 03:57:57;;;;;;;10.63;9.57;;;;;;;;;;5008422;28;20277;-65
2021/05/11 04:00:23;;;;;;;11.23;10.13;;;;;;;;;;5003204;28;20186;-65
2021/05/11 04:02:49;;;;;;;10.23;9.23;;;;;;;;;;5002471;28;20197;-63
2021/05/11 04:05:18;;;;;;;11.43;10.23;;;;;;;;;;5003658;28;20188;-63
2021/05/11 04:07:44;;;;;;;11.82;10.20;;;;;;;;;;5000473;28;20208;-63
2021/05/11 04:10:17;;;;;;;10.32;9.32;;;;;;;;;;4998293;28;20205;-65
2021/05/11 04:18:12;;;;;;;11.00;9.90;;;;;;;;;;5004109;28;20244;-64
2021/05/11 04:20:38;;;;;;;12.88;9.52;;;;;;;;;;5000511;28;20671;-63
2021/05/11 04:23:04;;;;;;;11.43;10.32;;;;;;;;;;5003999;28;20197;-62
2021/05/11 04:25:30;;;;;;;11.90;10.30;;;;;;;;;;5003393;28;20182;-63
2021/05/11 04:27:56;;;;;;;12.15;10.05;;;;;;;;;;4999903;28;20229;-64
2021/05/11 04:30:22;;;;;;;11.50;10.30;;;;;;;;;;5003012;28;20180;-63
2021/05/11 04:32:48;;;;;;;11.38;10.23;;;;;;;;;;5013492;28;20208;-63
2021/05/11 04:35:14;;;;;;;13.95;11.60;;;;;;;;;;5002832;28;20182;-63
2021/05/11 04:37:40;;;;;;;13.02;11.63;;;;;;;;;;5004649;28;20180;-64
2021/05/11 04:40:06;;;;;;;11.25;10.15;;;;;;;;;;5006601;28;20184;-64
2021/05/11 04:42:32;;;;;;;11.07;9.10;;;;;;;;;;5008123;28;20210;-64
2021/05/11 04:45:00;;;;;;;12.60;10.32;;;;;;;;;;5004119;28;20598;-64
2021/05/11 04:47:46;;;;;;;10.35;9.27;;;;;;;;;;5002996;28;20247;-65
2021/05/11 04:50:12;;;;;;;11.40;10.20;;;;;;;;;;5006300;28;20182;-65
2021/05/11 04:52:38;;;;;;;11.30;10.10;;;;;;;;;;5000779;28;20209;-62
2021/05/11 04:55:05;;;;;;;11.05;9.95;;;;;;;;;;5003903;28;20191;-65
2021/05/11 04:57:30;;;;;;;11.70;10.15;;;;;;;;;;5002272;28;20193;-65
2021/05/11 05:00:01;;;;;;;12.93;9.90;;;;;;;;;;5007543;28;20202;-65
2021/05/11 05:02:27;;;;;;;15.18;11.15;;;;;;;;;;5001863;28;20258;-65
2021/05/11 05:04:53;;;;;;;11.27;10.18;;;;;;;;;;4997449;28;20203;-65
2021/05/11 05:07:19;;;;;;;13.55;11.23;;;;;;;;;;4998401;28;20201;-65
2021/05/11 05:09:45;;;;;;;13.32;10.60;;;;;;;;;;4999875;28;20186;-65
2021/05/11 05:12:11;;;;;;;14.40;11.45;;;;;;;;;;5002989;28;20212;-64
2021/05/11 05:14:37;;;;;;;13.55;12.05;;;;;;;;;;5001514;28;20185;-63
2021/05/11 05:17:03;;;;;;;13.20;11.85;;;;;;;;;;5008342;28;20180;-64
2021/05/11 05:19:29;;;;;;;13.48;12.10;;;;;;;;;;5004416;28;20193;-64
2021/05/11 05:21:55;;;;;;;14.35;12.82;;;;;;;;;;4996217;28;20217;-64
2021/05/11 05:24:26;;;;;;;13.30;11.90;;;;;;;;;;4996869;28;20239;-64
2021/05/11 05:26:54;;;;;;;12.40;11.10;;;;;;;;;;5002745;28;20209;-64
2021/05/11 05:29:20;;;;;;;11.48;10.27;;;;;;;;;;5007496;28;20186;-65
2021/05/11 05:31:46;;;;;;;12.80;9.90;;;;;;;;;;5006851;28;20206;-64
2021/05/11 05:34:12;;;;;;;11.88;10.68;;;;;;;;;;5009035;28;20184;-64
2021/05/11 05:36:38;;;;;;;10.93;9.88;;;;;;;;;;5013757;28;20569;-64
2021/05/11 05:39:05;;;;;;;11.00;9.15;;;;;;;;;;4997488;28;20215;-65
2021/05/11 05:41:33;;;;;;;10.57;9.48;;;;;;;;;;4997975;28;20695;-66
2021/05/11 05:43:59;;;;;;;10.35;9.23;;;;;;;;;;5004926;28;20205;-64
2021/05/11 05:46:25;;;;;;;10.20;9.20;;;;;;;;;;5001901;28;20232;-65
2021/05/11 05:48:52;;;;;;;10.27;8.68;;;;;;;;;;4999074;28;20177;-64
2021/05/11 05:51:19;;;;;;;10.45;9.00;;;;;;;;;;5003559;28;20206;-65
2021/05/11 05:53:45;;;;;;;9.65;8.65;;;;;;;;;;5003036;28;20174;-64
2021/05/11 05:56:16;;;;;;;11.55;9.07;;;;;;;;;;5001762;28;20585;-65
2021/05/11 05:58:42;;;;;;;10.32;7.47;;;;;;;;;;4999257;28;20186;-65
2021/05/11 06:01:09;;;;;;;9.27;8.05;;;;;;;;;;5000265;28;20629;-66
2021/05/11 06:06:11;;;;;;;10.52;9.40;;;;;;;;;;5001466;28;20196;-65
2021/05/11 06:08:38;;;;;;;10.50;8.25;;;;;;;;;;5003705;28;20776;-66
2021/05/11 06:19:14;;;;;;;10.02;8.90;;;;;;;;;;5005891;28;20184;-66
2021/05/11 06:21:40;;;;;;;9.85;8.63;;;;;;;;;;4997047;28;20201;-67
2021/05/11 06:24:06;;;;;;;11.07;9.18;;;;;;;;;;5015575;28;20185;-64
2021/05/11 06:26:32;;;;;;;9.32;8.32;;;;;;;;;;4996386;28;20205;-65
2021/05/11 06:29:00;;;;;;;11.52;8.90;;;;;;;;;;5002673;28;20189;-67
2021/05/11 06:31:26;;;;;;;12.13;8.90;;;;;;;;;;5004187;28;20214;-66
2021/05/11 06:33:53;;;;;;;11.70;9.18;;;;;;;;;;4995322;28;20201;-66
2021/05/11 06:36:19;;;;;;;8.48;7.68;;;;;;;;;;4999511;28;20641;-65
2021/05/11 06:38:45;;;;;;;8.95;8.05;;;;;;;;;;5001158;28;20193;-66
2021/05/11 06:41:12;;;;;;;9.80;7.75;;;;;;;;;;4997617;28;20189;-66
2021/05/11 06:43:40;;;;;;;8.88;7.97;;;;;;;;;;5001956;28;20208;-66
2021/05/11 06:53:54;;;;;;;9.13;7.43;;;;;;;;;;4997912;28;20673;-66
2021/05/11 06:56:21;;;;;;;10.13;7.85;;;;;;;;;;4990712;28;20268;-66
2021/05/11 06:58:47;;;;;;;11.05;7.57;;;;;;;;;;4996496;28;20227;-65
2021/05/11 07:01:16;;;;;;;9.90;7.65;;;;;;;;;;5000162;28;20205;-65
2021/05/11 07:03:42;;;;;;;10.80;6.53;;;;;;;;;;4996283;28;20187;-66
2021/05/11 07:06:08;;;;;;;7.80;6.28;;;;;;;;;;4995870;28;20189;-66
2021/05/11 07:13:45;;;;;;;7.97;7.20;;;;;;;;;;5003737;28;20556;-65
2021/05/11 07:16:11;;;;;;;8.23;7.43;;;;;;;;;;5003036;28;20193;-66
2021/05/11 07:18:37;;;;;;;8.77;7.97;;;;;;;;;;5017243;28;20220;-66
2021/05/11 07:21:03;;;;;;;8.63;7.65;;;;;;;;;;5002808;28;20621;-65
2021/05/11 07:23:29;;;;;;;9.65;8.43;;;;;;;;;;5006364;28;20194;-65
2021/05/11 07:29:26;;;;;;;9.35;7.90;;;;;;;;;;4999301;28;20690;-66
2021/05/11 07:31:52;;;;;;;8.55;7.57;;;;;;;;;;4995307;28;20594;-65
2021/05/11 07:34:20;;;;;;;9.20;7.90;;;;;;;;;;4996384;28;20657;-65
2021/05/11 07:36:46;;;;;;;9.20;8.40;;;;;;;;;;5003586;28;20206;-65
2021/05/11 07:39:12;;;;;;;8.70;7.80;;;;;;;;;;5001403;28;20177;-65
2021/05/11 07:41:38;;;;;;;9.15;8.30;;;;;;;;;;5002418;28;20220;-65
2021/05/11 07:44:04;;;;;;;9.88;9.00;;;;;;;;;;4996033;28;20307;-65
2021/05/11 07:49:17;;;;;;;9.25;8.35;;;;;;;;;;4998982;28;20571;-65
2021/05/11 07:52:12;;;;;;;11.15;9.70;;;;;;;;;;5001450;28;20212;-65
2021/05/11 08:06:27;;;;;;;11.32;10.32;;;;;;;;;;4997591;28;20255;-66
2021/05/11 08:16:23;;;;;;;7.38;6.68;;;;;;;;;;4994654;28;20196;-65
2021/05/11 08:27:43;;;;;;;9.77;8.73;;;;;;;;;;4995845;28;20283;-65
2021/05/11 08:30:09;;;;;;;8.85;7.57;;;;;;;;;;5003993;28;20177;-65
2021/05/11 08:32:36;;;;;;;8.55;7.72;;;;;;;;;;5003760;28;20308;-66
2021/05/11 08:35:02;;;;;;;9.75;8.85;;;;;;;;;;5003017;28;20185;-65
2021/05/11 08:37:28;;;;;;;8.57;7.88;;;;;;;;;;4998255;28;20364;-65
2021/05/11 08:39:54;;;;;;;7.30;6.68;;;;;;;;;;5003526;28;20728;-65
2021/05/11 08:42:20;;;;;;;7.93;7.22;;;;;;;;;;5004840;28;20208;-65
2021/05/11 08:44:46;;;;;;;8.18;7.47;;;;;;;;;;5003174;28;20280;-65
2021/05/11 08:47:14;;;;;;;8.85;7.20;;;;;;;;;;5007270;28;20590;-65
2021/05/11 08:49:41;;;;;;;7.90;6.70;;;;;;;;;;5000769;28;20180;-65
2021/05/11 08:52:54;;;;;;;7.95;7.05;;;;;;;;;;5004486;28;20207;-65
2021/05/11 08:55:27;;;;;;;8.57;7.82;;;;;;;;;;5004570;28;20402;-65
2021/05/11 09:25:55;;;;;;;14.65;12.25;;;;;;;;;;5003618;28;20231;-66
2021/05/11 09:28:41;;;;;;;53.40;41.22;;;;;;;;;;5001470;28;20298;-66
2021/05/11 09:34:22;;;;;;;39.63;35.35;;;;;;;;;;4946301;28;20202;-65
2021/05/11 09:45:28;;;;;;;10.98;9.80;;;;;;;;;;4965625;28;20269;-65
2021/05/11 10:48:28;;;;;;;4.32;3.90;;;;;;;;;;4984874;28;20663;-65
2021/05/11 10:50:56;;;;;;;3.80;3.50;;;;;;;;;;5007030;28;20766;-65
2021/05/11 10:53:38;;;;;;;5.70;3.42;;;;;;;;;;5002205;28;20212;-65
2021/05/11 10:56:36;;;;;;;4.35;3.47;;;;;;;;;;4997885;28;20185;-66
2021/05/11 11:02:14;;;;;;;4.63;4.13;;;;;;;;;;4999706;28;20236;-66
2021/05/11 11:04:47;;;;;;;3.80;3.50;;;;;;;;;;4999174;28;20188;-66
2021/05/11 11:07:14;;;;;;;4.78;4.07;;;;;;;;;;4994599;28;20714;-65
2021/05/11 11:09:41;;;;;;;5.43;4.45;;;;;;;;;;5015118;28;20268;-63
2021/05/11 11:12:08;;;;;;;6.40;4.45;;;;;;;;;;5001482;28;20209;-65
2021/05/11 11:14:35;;;;;;;4.10;3.75;;;;;;;;;;5003494;28;20185;-65
2021/05/11 11:17:03;;;;;;;4.07;3.67;;;;;;;;;;4999918;28;20193;-64
2021/05/11 11:19:29;;;;;;;3.60;3.30;;;;;;;;;;5005312;28;20278;-64
2021/05/11 11:24:39;;;;;;;4.47;4.00;;;;;;;;;;5003779;28;20205;-64
2021/05/11 11:27:05;;;;;;;4.22;3.88;;;;;;;;;;5001081;28;20294;-65
2021/05/11 11:29:31;;;;;;;4.93;4.53;;;;;;;;;;4994065;28;20243;-65
2021/05/11 11:31:57;;;;;;;5.80;4.90;;;;;;;;;;5000827;28;20213;-67
2021/05/11 11:34:23;;;;;;;5.50;5.00;;;;;;;;;;5005075;28;20185;-65
2021/05/11 11:36:59;;;;;;;6.65;5.35;;;;;;;;;;5003979;28;20188;-63
2021/05/11 11:39:26;;;;;;;4.88;4.38;;;;;;;;;;5004464;28;20720;-64
2021/05/11 11:41:54;;;;;;;6.88;5.82;;;;;;;;;;5005944;28;20204;-64
2021/05/11 11:44:21;;;;;;;5.72;5.13;;;;;;;;;;5003082;28;20223;-64
2021/05/11 11:47:01;;;;;;;5.72;5.15;;;;;;;;;;5004671;28;20787;-63
2021/05/11 11:49:29;;;;;;;7.35;5.90;;;;;;;;;;5006199;28;20185;-63
2021/05/11 11:52:05;;;;;;;10.23;6.25;;;;;;;;;;5007435;28;20237;-63
2021/05/11 11:59:32;;;;;;;9.43;6.35;;;;;;;;;;5008496;28;20194;-67
2021/05/11 12:01:59;;;;;;;9.18;6.07;;;;;;;;;;5008703;28;20211;-64
2021/05/11 12:04:25;;;;;;;9.13;6.63;;;;;;;;;;5008226;28;20173;-64
2021/05/11 12:06:52;;;;;;;8.50;7.03;;;;;;;;;;5011474;28;20282;-65
2021/05/11 12:09:21;;;;;;;8.75;7.95;;;;;;;;;;5011141;28;20675;-65
2021/05/11 12:11:48;;;;;;;8.98;7.07;;;;;;;;;;5007623;28;20213;-65
2021/05/11 12:14:15;;;;;;;10.98;7.47;;;;;;;;;;5013790;28;20173;-65
2021/05/11 12:16:48;;;;;;;8.02;7.30;;;;;;;;;;5010662;28;20311;-64
2021/05/11 12:19:17;;;;;;;7.80;7.05;;;;;;;;;;5014517;28;20259;-65
2021/05/11 12:21:49;;;;;;;7.90;7.20;;;;;;;;;;5007536;28;20240;-65
2021/05/11 12:24:16;;;;;;;8.13;6.70;;;;;;;;;;5010693;28;20188;-66
2021/05/11 12:26:43;;;;;;;7.20;6.50;;;;;;;;;;5012233;28;20208;-66
2021/05/11 12:29:10;;;;;;;7.00;6.30;;;;;;;;;;5009327;28;20184;-65
2021/05/11 12:31:40;;;;;;;6.97;6.15;;;;;;;;;;5017930;28;20209;-64
2021/05/11 12:34:09;;;;;;;6.07;5.47;;;;;;;;;;5009731;28;20628;-65
2021/05/11 12:36:47;;;;;;;6.32;5.82;;;;;;;;;;5000821;28;20220;-65
2021/05/11 12:39:20;;;;;;;8.18;5.22;;;;;;;;;;5001527;28;20240;-66
2021/05/11 12:41:46;;;;;;;5.88;5.38;;;;;;;;;;5004736;28;20283;-66
2021/05/11 12:44:27;;;;;;;5.70;5.15;;;;;;;;;;5004646;28;20212;-66
2021/05/11 12:47:00;;;;;;;6.18;5.68;;;;;;;;;;5001588;28;20607;-65
2021/05/11 12:49:27;;;;;;;8.18;5.88;;;;;;;;;;5006103;28;20188;-65
2021/05/11 12:51:54;;;;;;;5.35;4.95;;;;;;;;;;5002605;28;20207;-64
2021/05/11 12:54:26;;;;;;;5.50;4.90;;;;;;;;;;5003699;28;20185;-65
2021/05/11 12:57:06;;;;;;;5.03;4.68;;;;;;;;;;5002199;28;20193;-65
2021/05/11 13:02:51;;;;;;;4.40;4.10;;;;;;;;;;4999478;28;20363;-65
2021/05/11 13:26:22;;;;;;;3.85;2.97;;;;;;;;;;5004680;28;20324;-65
2021/05/11 13:28:56;;;;;;;3.35;3.15;;;;;;;;;;5004427;28;20285;-65
2021/05/11 13:31:28;;;;;;;4.35;2.53;;;;;;;;;;5002158;28;20196;-65
2021/05/11 13:36:20;;;;;;;2.97;2.53;;;;;;;;;;4999045;28;20352;-66
2021/05/11 13:38:46;;;;;;;3.47;2.90;;;;;;;;;;5007743;28;20204;-65
2021/05/11 13:41:12;;;;;;;3.95;2.97;;;;;;;;;;5005486;28;20189;-66
2021/05/11 13:43:38;;;;;;;3.35;3.05;;;;;;;;;;5001655;28;20189;-66
2021/05/11 13:46:04;;;;;;;4.25;3.38;;;;;;;;;;5002158;28;20200;-66
2021/05/11 13:48:39;;;;;;;3.00;2.70;;;;;;;;;;5003070;28;20212;-65
2021/05/11 13:53:42;;;;;;;4.00;3.63;;;;;;;;;;5003248;28;20184;-65
2021/05/11 14:04:21;;;;;;;6.53;6.03;;;;;;;;;;5009184;28;20684;-67
2021/05/11 14:06:47;;;;;;;6.43;6.00;;;;;;;;;;5001341;28;20778;-65
2021/05/11 14:09:13;;;;;;;7.38;6.20;;;;;;;;;;4998649;28;20688;-65
2021/05/11 14:11:40;;;;;;;7.10;6.60;;;;;;;;;;4994935;28;20212;-65
2021/05/11 14:14:07;;;;;;;8.15;7.43;;;;;;;;;;4998721;28;20713;-64
2021/05/11 14:16:33;;;;;;;8.43;7.65;;;;;;;;;;5002882;28;20612;-65
2021/05/11 14:18:59;;;;;;;9.50;8.73;;;;;;;;;;5005052;28;20181;-65
2021/05/11 14:21:25;;;;;;;9.07;8.25;;;;;;;;;;5001863;28;20199;-65
2021/05/11 14:23:55;;;;;;;9.23;8.43;;;;;;;;;;5005044;28;20186;-65
2021/05/11 14:26:21;;;;;;;9.82;8.95;;;;;;;;;;5000796;28;20251;-65
2021/05/11 14:28:47;;;;;;;8.73;7.93;;;;;;;;;;5003819;28;20286;-64
2021/05/11 14:31:13;;;;;;;8.65;7.85;;;;;;;;;;5010563;28;20190;-65
2021/05/11 14:33:39;;;;;;;8.93;8.13;;;;;;;;;;5005795;28;20668;-65
2021/05/11 14:36:09;;;;;;;8.70;8.00;;;;;;;;;;5002611;28;20275;-65
2021/05/11 14:38:36;;;;;;;9.65;8.43;;;;;;;;;;5007969;28;20190;-67
2021/05/11 14:41:03;;;;;;;10.63;8.60;;;;;;;;;;5007782;28;20185;-65
2021/05/11 14:43:30;;;;;;;10.90;8.30;;;;;;;;;;5008794;28;20244;-66
2021/05/11 14:45:57;;;;;;;9.13;8.38;;;;;;;;;;5000979;28;20181;-66
2021/05/11 14:48:23;;;;;;;9.80;9.00;;;;;;;;;;5002380;28;20213;-65
2021/05/11 14:50:49;;;;;;;10.70;9.18;;;;;;;;;;5004007;28;21367;-65
2021/05/11 14:53:15;;;;;;;10.00;9.10;;;;;;;;;;5001057;28;20280;-65
2021/05/11 14:55:41;;;;;;;10.65;9.65;;;;;;;;;;5002954;28;20323;-65
2021/05/11 14:58:07;;;;;;;10.07;9.13;;;;;;;;;;5004879;28;20232;-65
2021/05/11 15:00:33;;;;;;;10.93;9.80;;;;;;;;;;5008595;28;20189;-65
2021/05/11 15:02:59;;;;;;;10.45;9.43;;;;;;;;;;5011442;28;20212;-65
2021/05/11 15:05:25;;;;;;;10.70;9.80;;;;;;;;;;4995390;28;20213;-64
2021/05/11 15:07:51;;;;;;;9.30;8.43;;;;;;;;;;4996116;28;20282;-65
2021/05/11 15:10:17;;;;;;;9.90;8.90;;;;;;;;;;5004686;28;20559;-65
2021/05/11 15:12:43;;;;;;;9.38;8.48;;;;;;;;;;4996480;28;20201;-68
2021/05/11 15:15:10;;;;;;;9.23;8.43;;;;;;;;;;4997713;28;20243;-68
2021/05/11 15:20:03;;;;;;;10.00;8.07;;;;;;;;;;4988385;28;21950;-67
2021/05/11 15:22:29;;;;;;;9.23;7.80;;;;;;;;;;4993053;28;20233;-66
2021/05/11 15:24:55;;;;;;;9.50;7.68;;;;;;;;;;5000987;28;20271;-65
2021/05/11 15:27:22;;;;;;;9.07;7.78;;;;;;;;;;4997335;28;20223;-66
2021/05/11 15:29:47;;;;;;;9.02;7.93;;;;;;;;;;4995341;28;20263;-64
2021/05/11 15:32:32;;;;;;;10.13;8.10;;;;;;;;;;5004633;28;20681;-66
2021/05/11 15:34:58;;;;;;;8.45;7.55;;;;;;;;;;4993199;28;20193;-67
2021/05/11 15:37:24;;;;;;;8.02;7.22;;;;;;;;;;5002332;28;20193;-68
2021/05/11 15:39:50;;;;;;;7.85;6.32;;;;;;;;;;5007605;28;20193;-67
2021/05/11 15:42:16;;;;;;;6.70;5.80;;;;;;;;;;4999536;28;20279;-67
2021/05/11 15:44:42;;;;;;;7.07;5.65;;;;;;;;;;5002519;28;20197;-67
2021/05/11 15:47:08;;;;;;;6.43;4.38;;;;;;;;;;5009157;28;20660;-66
2021/05/11 15:49:34;;;;;;;5.47;4.20;;;;;;;;;;5008973;28;20272;-66
2021/05/11 15:52:00;;;;;;;5.57;4.60;;;;;;;;;;5009847;28;20208;-66
2021/05/11 15:54:26;;;;;;;3.78;3.22;;;;;;;;;;5012782;28;20731;-66
2021/05/11 15:56:52;;;;;;;4.63;3.38;;;;;;;;;;5009684;28;20181;-66
2021/05/11 15:59:18;;;;;;;3.63;2.50;;;;;;;;;;5010960;28;20557;-66
2021/05/11 16:01:44;;;;;;;2.45;2.25;;;;;;;;;;5009955;28;20204;-66
2021/05/11 16:04:10;;;;;;;2.28;1.95;;;;;;;;;;5017076;28;20680;-66
2021/05/11 16:06:36;;;;;;;3.40;1.88;;;;;;;;;;5011117;28;20181;-66
2021/05/11 16:09:02;;;;;;;2.08;1.98;;;;;;;;;;5007438;28;20758;-67
2021/05/11 16:11:28;;;;;;;3.17;2.10;;;;;;;;;;5009884;28;20208;-65
2021/05/11 16:13:54;;;;;;;3.92;2.47;;;;;;;;;;5013291;28;20185;-67
2021/05/11 16:16:20;;;;;;;2.72;2.45;;;;;;;;;;5006493;28;20173;-66
2021/05/11 16:18:47;;;;;;;7.57;4.57;;;;;;;;;;5005670;28;20685;-65
2021/05/11 16:21:13;;;;;;;4.13;3.72;;;;;;;;;;5010122;28;20608;-65
2021/05/11 16:23:39;;;;;;;6.38;3.10;;;;;;;;;;5006674;28;20303;-64
2021/05/11 16:26:05;;;;;;;6.97;3.55;;;;;;;;;;5009036;28;20212;-66
2021/05/11 16:28:31;;;;;;;5.65;4.07;;;;;;;;;;5005265;28;20308;-66
2021/05/11 16:30:59;;;;;;;6.88;5.30;;;;;;;;;;4986850;28;20999;-65
2021/05/11 16:33:25;;;;;;;7.78;5.10;;;;;;;;;;5004932;28;20205;-65
2021/05/11 16:35:51;;;;;;;11.00;7.18;;;;;;;;;;5001970;28;20664;-67
2021/05/11 16:38:17;;;;;;;7.65;6.75;;;;;;;;;;5002298;28;20196;-67
2021/05/11 16:40:43;;;;;;;7.35;4.68;;;;;;;;;;4999979;28;20180;-67
2021/05/11 16:43:10;;;;;;;4.45;3.85;;;;;;;;;;5008689;28;20591;-67
2021/05/11 16:45:36;;;;;;;5.60;3.72;;;;;;;;;;4999294;28;20177;-67
2021/05/11 16:48:02;;;;;;;4.63;4.18;;;;;;;;;;5001022;28;20214;-67
2021/05/11 16:50:29;;;;;;;3.97;3.55;;;;;;;;;;5002599;28;20247;-69
2021/05/11 16:52:57;;;;;;;4.63;3.88;;;;;;;;;;5005420;28;20197;-65
2021/05/11 16:55:24;;;;;;;4.57;3.55;;;;;;;;;;4999110;28;20186;-66
2021/05/11 16:57:50;;;;;;;4.82;4.20;;;;;;;;;;5002231;28;20186;-65
2021/05/11 17:00:20;;;;;;;6.00;3.58;;;;;;;;;;5002538;28;20196;-65
2021/05/11 17:02:46;;;;;;;4.97;4.57;;;;;;;;;;5001384;28;20723;-66
2021/05/11 17:05:12;;;;;;;5.53;4.20;;;;;;;;;;5000931;28;20193;-66
2021/05/11 17:07:38;;;;;;;4.60;4.20;;;;;;;;;;5008315;28;20267;-66
2021/05/11 17:10:05;;;;;;;6.88;6.20;;;;;;;;;;5011270;28;20675;-66
2021/05/11 17:12:31;;;;;;;5.15;4.65;;;;;;;;;;5002787;28;20205;-66
2021/05/11 17:14:57;;;;;;;4.35;3.95;;;;;;;;;;5003282;28;20187;-65
2021/05/11 17:17:23;;;;;;;3.60;3.30;;;;;;;;;;5000751;28;20193;-66
2021/05/11 17:19:49;;;;;;;3.70;3.40;;;;;;;;;;5001257;28;20680;-67
2021/05/11 17:22:15;;;;;;;5.72;3.60;;;;;;;;;;4997960;28;20291;-66
2021/05/11 17:24:41;;;;;;;3.50;3.00;;;;;;;;;;5000859;28;20185;-66
2021/05/11 17:27:07;;;;;;;4.18;3.13;;;;;;;;;;5002010;28;20200;-66
2021/05/11 17:29:34;;;;;;;4.13;3.72;;;;;;;;;;5006193;28;20208;-66
2021/05/11 17:32:00;;;;;;;10.25;9.23;;;;;;;;;;4996461;28;20209;-66
2021/05/11 17:34:26;;;;;;;5.43;4.93;;;;;;;;;;5003758;28;20185;-66
2021/05/11 17:36:52;;;;;;;6.03;4.50;;;;;;;;;;4999895;28;20190;-67
2021/05/11 17:39:18;;;;;;;5.80;4.50;;;;;;;;;;4999191;28;20409;-66
2021/05/11 17:41:44;;;;;;;4.70;4.30;;;;;;;;;;4999935;28;20688;-66
2021/05/11 17:44:10;;;;;;;5.72;4.28;;;;;;;;;;5001176;28;20192;-66
2021/05/11 17:46:36;;;;;;;4.10;3.78;;;;;;;;;;4997321;28;20190;-65
2021/05/11 17:49:02;;;;;;;5.50;3.58;;;;;;;;;;5005921;28;20255;-66
2021/05/11 17:51:28;;;;;;;3.13;2.92;;;;;;;;;;5000950;28;20640;-66
2021/05/11 17:53:54;;;;;;;4.03;3.72;;;;;;;;;;5001208;28;20200;-65
2021/05/11 17:56:23;;;;;;;4.72;4.32;;;;;;;;;;4998468;28;20185;-67
2021/05/11 17:58:49;;;;;;;6.53;4.80;;;;;;;;;;4997208;28;20181;-66
2021/05/11 18:01:15;;;;;;;4.68;4.28;;;;;;;;;;4999533;28;20196;-66
2021/05/11 18:03:42;;;;;;;4.38;3.95;;;;;;;;;;5010775;28;20216;-67
2021/05/11 18:06:08;;;;;;;6.68;4.45;;;;;;;;;;4997808;28;20193;-66
2021/05/11 18:08:34;;;;;;;7.82;5.45;;;;;;;;;;4999953;28;20217;-65
2021/05/11 18:11:00;;;;;;;3.88;3.03;;;;;;;;;;4999681;28;20300;-65
2021/05/11 18:13:32;;;;;;;5.00;4.25;;;;;;;;;;5004473;28;20909;-66
2021/05/11 18:15:58;;;;;;;4.05;3.65;;;;;;;;;;4998720;28;20192;-65
2021/05/11 18:18:24;;;;;;;4.88;4.18;;;;;;;;;;4999752;28;20248;-66
2021/05/11 18:20:50;;;;;;;7.05;4.20;;;;;;;;;;5005215;28;20189;-66
2021/05/11 18:23:16;;;;;;;4.22;3.92;;;;;;;;;;5002416;28;20213;-66
2021/05/11 18:25:42;;;;;;;5.53;4.15;;;;;;;;;;4998969;28;20743;-66
2021/05/11 18:28:08;;;;;;;6.22;5.72;;;;;;;;;;5004813;28;20240;-66
2021/05/11 18:30:34;;;;;;;5.05;4.40;;;;;;;;;;5004522;28;20188;-65
2021/05/11 18:33:00;;;;;;;4.60;4.18;;;;;;;;;;5002773;28;20296;-65
2021/05/11 18:35:29;;;;;;;4.20;3.90;;;;;;;;;;5005309;28;20217;-65
2021/05/11 18:37:58;;;;;;;7.45;4.95;;;;;;;;;;5006303;28;20182;-66
2021/05/11 18:40:24;;;;;;;4.03;3.70;;;;;;;;;;5004247;28;20209;-65
2021/05/11 18:42:51;;;;;;;4.47;4.03;;;;;;;;;;5003723;28;20207;-66
2021/05/11 18:45:17;;;;;;;4.22;3.50;;;;;;;;;;4997073;28;20202;-65
2021/05/11 18:47:55;;;;;;;3.53;3.22;;;;;;;;;;4999682;28;20205;-66
2021/05/11 18:50:21;;;;;;;3.85;3.55;;;;;;;;;;4997622;28;20177;-65
2021/05/11 18:52:47;;;;;;;3.67;3.38;;;;;;;;;;4995348;28;20815;-67
2021/05/11 18:55:13;;;;;;;4.22;3.90;;;;;;;;;;5002567;28;20261;-67
2021/05/11 18:57:39;;;;;;;5.35;4.20;;;;;;;;;;4996708;28;20180;-67
2021/05/11 19:00:06;;;;;;;5.00;4.50;;;;;;;;;;5000597;28;20264;-67
2021/05/11 19:02:32;;;;;;;5.25;4.75;;;;;;;;;;5004577;28;20219;-66
2021/05/11 19:04:58;;;;;;;5.10;4.45;;;;;;;;;;5000002;28;20250;-68
2021/05/11 19:07:24;;;;;;;4.45;4.15;;;;;;;;;;4996498;28;20276;-68